Terminal Aerodrome Forecast
Issued by NWS

Home | Current Version | Previous Version | Text Only | Print | Product List | Glossary On
Versions: 1 2 3 4 5 6 7 8 9 10 11 12 13 14 15 16 17 18 19 20 21 22 23 24 25 26 27 28
000
FTUS44 KOUN 272320
TAFLAW
TAF
KLAW 272320Z 2800/2824 17012KT P6SM FEW030 BKN050
      TEMPO 2800/2802 6SM TSRA BKN030CB
     FM280600 16011KT P6SM OVC025
      TEMPO 2810/2814 -SHRA BKN025
     FM281400 19015KT P6SM BKN030 PROB30 2814/2817 6SM -RA BKN030=

USA.gov is the U.S. government's official web portal to all federal, state and local government web resources and services.